Time,TemperatureF,DewpointF,PressureIn,WindDirection,WindDirectionDegrees,WindSpeedMPH,WindSpeedGustMPH,Humidity,HourlyPrecipIn,Conditions,Clouds,dailyrainin,SoftwareType,DateUTC
2013-09-08 00:00:00,61.0,48.0,-100.00,West,259,7.0,9.0,62,0.00,,,0.09,,2013-09-08 06:00:00,
2013-09-08 00:42:00,61.0,48.0,-100.00,West,259,7.0,9.0,62,0.00,,,0.09,,2013-09-08 06:42:00,
2013-09-08 00:53:00,61.0,48.0,-100.00,West,259,7.0,9.0,62,0.00,,,0.09,,2013-09-08 06:53:00,
2013-09-08 01:00:00,60.0,47.0,-100.00,West,269,8.0,10.0,62,0.00,,,0.09,,2013-09-08 07:00:00,
2013-09-08 01:42:00,60.0,47.0,-100.00,West,269,8.0,10.0,62,0.00,,,0.09,,2013-09-08 07:42:00,
2013-09-08 01:52:00,60.0,47.0,-100.00,West,269,8.0,10.0,62,0.00,,,0.09,,2013-09-08 07:52:00,
2013-09-08 02:00:00,59.0,46.0,-100.00,West,264,10.0,14.0,62,0.00,,,0.08,,2013-09-08 08:00:00,
2013-09-08 02:42:00,59.0,46.0,-100.00,West,264,10.0,14.0,62,0.00,,,0.08,,2013-09-08 08:42:00,
2013-09-08 02:52:00,59.0,46.0,-100.00,West,264,10.0,14.0,62,0.00,,,0.08,,2013-09-08 08:52:00,
2013-09-08 04:00:00,59.0,42.0,-100.00,West,273,11.0,14.0,54,0.00,,,0.06,,2013-09-08 10:00:00,
2013-09-08 04:42:00,59.0,42.0,-100.00,West,273,11.0,14.0,54,0.00,,,0.06,,2013-09-08 10:42:00,
2013-09-08 04:53:00,59.0,42.0,-100.00,West,273,11.0,14.0,54,0.00,,,0.06,,2013-09-08 10:53:00,
2013-09-08 05:00:00,61.0,41.0,-100.00,WSW,253,11.0,14.0,48,0.00,,,0.05,,2013-09-08 11:00:00,
2013-09-08 05:42:00,61.0,41.0,-100.00,WSW,253,11.0,14.0,48,0.00,,,0.05,,2013-09-08 11:42:00,
2013-09-08 05:52:00,61.0,41.0,-100.00,WSW,253,11.0,14.0,48,0.00,,,0.05,,2013-09-08 11:52:00,
2013-09-08 06:00:00,60.0,41.0,-100.00,ESE,118,2.0,5.0,50,0.00,,,0.04,,2013-09-08 12:00:00,
2013-09-08 06:42:00,60.0,41.0,-100.00,ESE,118,2.0,5.0,50,0.00,,,0.04,,2013-09-08 12:42:00,
2013-09-08 06:52:00,60.0,41.0,-100.00,ESE,118,2.0,5.0,50,0.00,,,0.04,,2013-09-08 12:52:00,
2013-09-08 09:00:00,64.0,47.0,-100.00,East,98,3.0,5.0,54,0.00,,,0.01,,2013-09-08 15:00:00,
2013-09-08 09:45:00,64.0,47.0,-100.00,East,98,3.0,5.0,54,0.00,,,0.01,,2013-09-08 15:45:00,
2013-09-08 09:54:00,64.0,47.0,-100.00,East,98,3.0,5.0,54,0.00,,,0.01,,2013-09-08 15:54:00,
2013-09-08 10:00:00,64.0,46.0,-100.00,East,83,6.0,8.0,52,0.01,,,0.01,,2013-09-08 16:00:00,
2013-09-08 10:43:00,64.0,46.0,-100.00,East,83,6.0,8.0,52,0.01,,,0.01,,2013-09-08 16:43:00,
2013-09-08 10:53:00,64.0,46.0,-100.00,East,83,6.0,8.0,52,0.01,,,0.01,,2013-09-08 16:53:00,
2013-09-08 11:00:00,65.0,45.0,-100.00,East,85,7.0,10.0,48,0.00,,,0.01,,2013-09-08 17:00:00,
2013-09-08 11:43:00,65.0,45.0,-100.00,East,85,7.0,10.0,48,0.00,,,0.01,,2013-09-08 17:43:00,
2013-09-08 11:53:00,65.0,45.0,-100.00,East,85,7.0,10.0,48,0.00,,,0.01,,2013-09-08 17:53:00,
2013-09-08 12:00:00,66.0,44.0,-100.00,ENE,61,5.0,8.0,44,0.00,,,0.01,,2013-09-08 18:00:00,
2013-09-08 12:42:00,66.0,44.0,-100.00,ENE,61,5.0,8.0,44,0.00,,,0.01,,2013-09-08 18:42:00,
2013-09-08 12:52:00,66.0,44.0,-100.00,ENE,61,5.0,8.0,44,0.00,,,0.01,,2013-09-08 18:52:00,
2013-09-08 13:00:00,63.0,48.0,-100.00,WSW,244,4.0,5.0,58,0.00,,,0.01,,2013-09-08 19:00:00,
2013-09-08 13:42:00,63.0,48.0,-100.00,WSW,244,4.0,5.0,58,0.00,,,0.01,,2013-09-08 19:42:00,
2013-09-08 13:52:00,63.0,48.0,-100.00,WSW,244,4.0,5.0,58,0.00,,,0.01,,2013-09-08 19:52:00,
2013-09-08 14:00:00,65.0,47.0,-100.00,East,92,5.0,7.0,53,0.00,,,0.01,,2013-09-08 20:00:00,
2013-09-08 14:42:00,65.0,47.0,-100.00,East,92,5.0,7.0,53,0.00,,,0.01,,2013-09-08 20:42:00,
2013-09-08 14:53:00,65.0,47.0,-100.00,East,92,5.0,7.0,53,0.00,,,0.01,,2013-09-08 20:53:00,
2013-09-08 15:00:00,63.0,46.0,-100.00,East,81,1.0,6.0,53,0.00,,,0.01,,2013-09-08 21:00:00,
2013-09-08 15:43:00,63.0,46.0,-100.00,East,81,1.0,6.0,53,0.00,,,0.01,,2013-09-08 21:43:00,
2013-09-08 15:54:00,63.0,46.0,-100.00,East,81,1.0,6.0,53,0.00,,,0.01,,2013-09-08 21:54:00,
2013-09-08 16:00:00,56.0,53.0,-100.00,ESE,112,2.0,4.0,89,0.00,,,0.01,,2013-09-08 22:00:00,
2013-09-08 16:43:00,56.0,53.0,-100.00,ESE,112,2.0,4.0,89,0.00,,,0.01,,2013-09-08 22:43:00,
2013-09-08 16:53:00,56.0,53.0,-100.00,ESE,112,2.0,4.0,89,0.00,,,0.01,,2013-09-08 22:53:00,
2013-09-08 17:00:00,56.0,53.0,-100.00,SE,129,1.0,2.0,92,0.01,,,0.02,,2013-09-08 23:00:00,
2013-09-08 17:42:00,56.0,53.0,-100.00,SE,129,1.0,2.0,92,0.01,,,0.02,,2013-09-08 23:42:00,
2013-09-08 17:52:00,56.0,53.0,-100.00,SE,129,1.0,2.0,92,0.01,,,0.02,,2013-09-08 23:52:00,
2013-09-08 18:00:00,59.0,53.0,-100.00,West,270,1.0,1.0,82,0.04,,,0.06,,2013-09-09 00:00:00,
2013-09-08 18:42:00,59.0,53.0,-100.00,West,270,1.0,1.0,82,0.04,,,0.06,,2013-09-09 00:42:00,
2013-09-08 18:52:00,59.0,53.0,-100.00,West,270,1.0,1.0,82,0.04,,,0.06,,2013-09-09 00:52:00,
2013-09-08 19:00:00,59.0,52.0,-100.00,NW,319,5.0,7.0,77,0.00,,,0.06,,2013-09-09 01:00:00,
2013-09-08 19:52:00,59.0,52.0,-100.00,NW,319,5.0,7.0,77,0.00,,,0.06,,2013-09-09 01:52:00,
2013-09-08 20:00:00,57.0,49.0,-100.00,SW,220,7.0,11.0,73,0.00,,,0.06,,2013-09-09 02:00:00,
2013-09-08 20:42:00,57.0,49.0,-100.00,SW,220,7.0,11.0,73,0.00,,,0.06,,2013-09-09 02:42:00,
2013-09-08 20:53:00,57.0,49.0,-100.00,SW,220,7.0,11.0,73,0.00,,,0.06,,2013-09-09 02:53:00,
2013-09-08 22:00:00,56.0,42.0,-100.00,WSW,246,8.0,12.0,58,0.00,,,0.06,,2013-09-09 04:00:00,
2013-09-08 22:43:00,56.0,42.0,-100.00,WSW,246,8.0,12.0,58,0.00,,,0.06,,2013-09-09 04:43:00,
2013-09-08 22:54:00,56.0,42.0,-100.00,WSW,246,8.0,12.0,58,0.00,,,0.06,,2013-09-09 04:54:00,
2013-09-08 23:00:00,58.0,42.0,-100.00,WSW,245,9.0,11.0,55,0.00,,,0.06,,2013-09-09 05:00:00,
2013-09-08 23:43:00,58.0,42.0,-100.00,WSW,245,9.0,11.0,55,0.00,,,0.06,,2013-09-09 05:43:00,
2013-09-08 23:53:00,58.0,42.0,-100.00,WSW,245,9.0,11.0,55,0.00,,,0.06,,2013-09-09 05:53:00,